createdAt,value
2022-09-20T00:00:00.398Z,233.0
2022-09-20T00:05:00.663Z,230.1
2022-09-20T00:10:00.370Z,238.4
2022-09-20T00:15:00.400Z,244.8
2022-09-20T00:20:00.339Z,241.7
2022-09-20T00:25:00.335Z,226.0
2022-09-20T00:30:00.351Z,229.0
2022-09-20T00:35:00.344Z,231.9
2022-09-20T00:40:00.665Z,230.5
2022-09-20T00:45:00.368Z,225.1
2022-09-20T00:50:02.691Z,244.7
2022-09-20T00:55:00.336Z,247.5
2022-09-20T01:00:00.367Z,225.3
2022-09-20T01:05:00.327Z,244.9
2022-09-20T01:10:00.534Z,225.7
2022-09-20T01:15:00.356Z,225.0
2022-09-20T01:20:00.386Z,203.5
2022-09-20T01:25:00.356Z,202.5
2022-09-20T01:30:00.345Z,202.5
2022-09-20T01:35:00.321Z,202.5
2022-09-20T01:40:00.740Z,181.5
2022-09-20T01:45:00.338Z,200.5
2022-09-20T01:50:00.336Z,202.5
2022-09-20T01:55:00.357Z,215.2
2022-09-20T02:00:00.371Z,220.1
2022-09-20T02:05:00.331Z,223.5
2022-09-20T02:10:00.365Z,218.3
2022-09-20T02:15:00.333Z,216.0
2022-09-20T02:20:00.366Z,231.4
2022-09-20T02:25:00.333Z,226.6
2022-09-20T02:30:00.396Z,252.6
2022-09-20T02:35:00.424Z,230.0
2022-09-20T02:40:00.614Z,246.0
2022-09-20T02:45:00.347Z,222.5
2022-09-20T02:50:00.351Z,241.1
2022-09-20T02:55:00.340Z,214.5
2022-09-20T03:00:01.032Z,228.2
2022-09-20T03:05:00.353Z,237.0
2022-09-20T03:10:00.364Z,221.8
2022-09-20T03:15:00.360Z,228.8
2022-09-20T03:20:00.355Z,235.2
2022-09-20T03:25:00.347Z,242.9
2022-09-20T03:30:00.358Z,251.2
2022-09-20T03:35:00.324Z,228.7
2022-09-20T03:40:00.717Z,232.8
2022-09-20T03:45:00.380Z,240.6
2022-09-20T03:50:00.337Z,234.0
2022-09-20T03:55:00.342Z,248.8
2022-09-20T04:00:00.396Z,242.3
2022-09-20T04:05:00.319Z,251.3
2022-09-20T04:10:00.369Z,228.2
2022-09-20T04:15:00.408Z,251.2
2022-09-20T04:20:00.364Z,232.5
2022-09-20T04:25:00.327Z,243.9
2022-09-20T04:30:00.476Z,235.3
2022-09-20T04:35:00.340Z,227.9
2022-09-20T04:40:00.589Z,243.2
2022-09-20T04:45:00.462Z,239.7
2022-09-20T04:50:00.363Z,234.2
2022-09-20T04:55:00.396Z,242.8
2022-09-20T05:00:00.399Z,248.1
2022-09-20T05:05:00.312Z,233.0
2022-09-20T05:10:00.362Z,243.4
2022-09-20T05:15:00.367Z,249.8
2022-09-20T05:20:00.335Z,259.9
2022-09-20T05:25:00.328Z,248.4
2022-09-20T05:30:05.551Z,253.5
2022-09-20T05:35:00.334Z,254.8
2022-09-20T05:40:00.671Z,223.4
2022-09-20T05:45:00.320Z,247.7
2022-09-20T05:50:00.346Z,249.6
2022-09-20T05:55:00.328Z,242.0
2022-09-20T06:00:00.385Z,254.4
2022-09-20T06:05:00.328Z,244.7
2022-09-20T06:10:00.508Z,256.7
2022-09-20T06:15:00.476Z,252.5
2022-09-20T06:20:00.372Z,259.5
2022-09-20T06:25:00.335Z,253.5
2022-09-20T06:30:00.359Z,248.9
2022-09-20T06:35:00.311Z,232.0
2022-09-20T06:40:00.745Z,242.8
2022-09-20T06:45:00.340Z,241.1
2022-09-20T06:50:00.365Z,230.2
2022-09-20T06:55:00.326Z,228.9
2022-09-20T07:00:00.407Z,252.7
2022-09-20T07:05:00.341Z,242.2
2022-09-20T07:10:00.350Z,247.0
2022-09-20T07:15:00.348Z,252.5
2022-09-20T07:20:00.745Z,263.5
2022-09-20T07:25:00.353Z,248.4
2022-09-20T07:30:00.376Z,247.6
2022-09-20T07:35:00.351Z,225.9
2022-09-20T07:40:00.771Z,263.1
2022-09-20T07:45:00.341Z,267.6
2022-09-20T07:50:00.396Z,227.9
2022-09-20T07:55:00.358Z,238.9
2022-09-20T08:00:00.456Z,248.9
2022-09-20T08:05:00.432Z,248.0
2022-09-20T08:10:00.386Z,233.5
2022-09-20T08:15:00.341Z,233.6
2022-09-20T08:20:00.388Z,277.1
2022-09-20T08:25:00.325Z,263.1
2022-09-20T08:30:00.359Z,251.7
2022-09-20T08:35:00.368Z,240.3
2022-09-20T08:40:01.049Z,213.1
2022-09-20T08:45:01.068Z,250.3
2022-09-20T08:50:09.472Z,253.4
2022-09-20T08:55:00.375Z,295.1
2022-09-20T09:00:00.351Z,265.2
2022-09-20T09:05:00.337Z,234.4
2022-09-20T09:10:00.341Z,227.5
2022-09-20T09:15:00.360Z,240.3
2022-09-20T09:20:00.367Z,222.6
2022-09-20T09:25:00.403Z,247.9
2022-09-20T09:30:00.349Z,222.8
2022-09-20T09:35:00.334Z,236.2
2022-09-20T09:40:00.666Z,230.4
2022-09-20T09:45:00.519Z,268.8
2022-09-20T09:50:10.169Z,255.0
2022-09-20T09:55:06.219Z,224.9
2022-09-20T10:00:18.865Z,230.5
2022-09-20T10:05:00.388Z,210.3
2022-09-20T10:10:00.389Z,259.8
2022-09-20T10:15:00.344Z,239.1
2022-09-20T10:20:00.366Z,235.1
2022-09-20T10:25:00.344Z,258.9
2022-09-20T10:30:00.389Z,287.7
2022-09-20T10:35:00.323Z,273.3
2022-09-20T10:40:00.661Z,314.6
2022-09-20T10:45:00.332Z,267.9
2022-09-20T10:50:00.350Z,268.9
2022-09-20T10:55:00.347Z,244.1
2022-09-20T11:00:00.461Z,223.4
2022-09-20T11:05:00.343Z,251.3
2022-09-20T11:10:00.367Z,246.6
2022-09-20T11:15:00.345Z,232.6
2022-09-20T11:20:08.070Z,221.4
2022-09-20T11:25:00.376Z,245.7
2022-09-20T11:30:00.394Z,246.6
2022-09-20T11:35:00.467Z,224.2
2022-09-20T11:40:00.678Z,216.1
2022-09-20T11:45:00.356Z,262.3
2022-09-20T11:50:00.344Z,228.3
2022-09-20T11:55:00.372Z,232.4
2022-09-20T12:00:00.416Z,249.4
2022-09-20T12:05:00.339Z,213.1
2022-09-20T12:10:00.385Z,217.9
2022-09-20T12:15:00.419Z,207.0
2022-09-20T12:20:00.390Z,232.0
2022-09-20T12:25:00.345Z,252.1
2022-09-20T12:30:00.343Z,265.5
2022-09-20T12:35:00.320Z,261.4
2022-09-20T12:40:00.688Z,257.9
2022-09-20T12:45:00.353Z,258.4
2022-09-20T12:50:00.399Z,267.2
2022-09-20T12:55:11.411Z,247.1
2022-09-20T13:00:00.362Z,236.9
2022-09-20T13:05:00.321Z,235.0
2022-09-20T13:10:00.330Z,233.4
2022-09-20T13:15:00.340Z,254.4
2022-09-20T13:20:00.370Z,229.7
2022-09-20T13:25:00.334Z,237.8
2022-09-20T13:30:00.362Z,235.6
2022-09-20T13:35:00.309Z,262.1
2022-09-20T13:40:00.675Z,240.0
2022-09-20T13:45:00.354Z,255.0
2022-09-20T13:50:00.364Z,253.8
2022-09-20T13:55:00.347Z,291.8
2022-09-20T14:00:00.351Z,213.0
2022-09-20T14:05:00.322Z,256.9
2022-09-20T14:10:00.534Z,281.4
2022-09-20T14:15:00.342Z,230.4
2022-09-20T14:20:00.343Z,251.3
2022-09-20T14:25:00.328Z,287.0
2022-09-20T14:30:00.397Z,254.4
2022-09-20T14:35:00.345Z,247.9
2022-09-20T14:40:00.684Z,211.7
2022-09-20T14:45:00.337Z,246.8
2022-09-20T14:50:00.696Z,244.7
2022-09-20T14:55:00.363Z,313.5
2022-09-20T15:00:00.698Z,316.4
2022-09-20T15:05:00.349Z,54.8
2022-09-20T15:10:00.344Z,51.0
2022-09-20T15:15:00.332Z,61.1
2022-09-20T15:20:00.464Z,50.5
2022-09-20T15:25:00.337Z,47.6
2022-09-20T15:30:00.369Z,46.5
2022-09-20T15:35:00.347Z,39.8
2022-09-20T15:40:00.620Z,359.1
2022-09-20T15:45:00.360Z,318.8
2022-09-20T15:50:00.387Z,340.9
2022-09-20T15:55:00.371Z,340.9
2022-09-20T16:00:00.360Z,26.4
2022-09-20T16:05:00.308Z,14.9
2022-09-20T16:10:00.410Z,49.9
2022-09-20T16:15:00.331Z,46.7
2022-09-20T16:20:00.358Z,43.5
2022-09-20T16:25:00.439Z,37.3
2022-09-20T16:30:00.364Z,15.3
2022-09-20T16:35:00.441Z,329.9
2022-09-20T16:40:00.783Z,337.0
2022-09-20T16:45:00.365Z,225.4
2022-09-20T16:50:03.871Z,278.3
2022-09-20T16:55:00.366Z,280.8
2022-09-20T17:00:00.368Z,203.0
2022-09-20T17:05:00.768Z,202.5
2022-09-20T17:10:00.389Z,224.6
2022-09-20T17:15:00.341Z,204.9
2022-09-20T17:20:00.360Z,202.5
2022-09-20T17:25:00.356Z,202.5
2022-09-20T17:30:00.346Z,219.0
2022-09-20T17:35:00.327Z,225.0
2022-09-20T17:40:00.705Z,225.0
2022-09-20T17:45:00.323Z,251.5
2022-09-20T17:50:00.428Z,320.9
2022-09-20T17:55:00.350Z,307.2
2022-09-20T18:00:00.395Z,331.0
2022-09-20T18:05:00.315Z,306.1
2022-09-20T18:10:00.355Z,306.2
2022-09-20T18:15:00.441Z,296.1
2022-09-20T18:20:00.356Z,310.6
2022-09-20T18:25:00.339Z,302.8
2022-09-20T18:30:00.358Z,268.9
2022-09-20T18:35:00.307Z,269.8
2022-09-20T18:40:00.699Z,268.3
2022-09-20T18:45:00.442Z,269.9
2022-09-20T18:50:00.394Z,243.1
2022-09-20T18:55:00.509Z,297.9
2022-09-20T19:00:04.498Z,311.3
2022-09-20T19:05:00.484Z,288.9
2022-09-20T19:10:00.358Z,269.1
2022-09-20T19:15:00.377Z,269.9
2022-09-20T19:20:00.353Z,302.7
2022-09-20T19:25:00.343Z,313.3
2022-09-20T19:30:00.447Z,330.0
2022-09-20T19:35:00.343Z,283.9
2022-09-20T19:40:00.668Z,270.1
2022-09-20T19:45:00.310Z,265.5
2022-09-20T19:50:00.336Z,227.2
2022-09-20T19:55:00.487Z,225.0
2022-09-20T20:00:00.444Z,203.6
2022-09-20T20:05:00.318Z,202.5
2022-09-20T20:10:00.334Z,202.5
2022-09-20T20:15:00.316Z,202.5
2022-09-20T20:20:00.392Z,202.5
2022-09-20T20:25:00.340Z,202.5
2022-09-20T20:30:00.357Z,202.5
2022-09-20T20:35:00.322Z,198.2
2022-09-20T20:40:00.680Z,180.1
2022-09-20T20:45:00.332Z,180.0
2022-09-20T20:50:00.346Z,180.0
2022-09-20T20:55:00.496Z,180.0
2022-09-20T21:00:00.398Z,180.0
2022-09-20T21:05:00.333Z,180.0
2022-09-20T21:10:00.361Z,180.0
2022-09-20T21:15:00.339Z,180.0
2022-09-20T21:20:00.393Z,202.0
2022-09-20T21:25:00.334Z,201.2
2022-09-20T21:30:00.404Z,202.5
2022-09-20T21:35:00.329Z,202.5
2022-09-20T21:40:00.751Z,202.5
2022-09-20T21:45:00.321Z,202.5
2022-09-20T21:50:00.402Z,202.5
2022-09-20T21:55:00.325Z,202.5
2022-09-20T22:00:00.427Z,202.5
2022-09-20T22:05:00.343Z,202.2
2022-09-20T22:10:00.363Z,202.5
2022-09-20T22:15:00.325Z,202.5
2022-09-20T22:20:00.335Z,202.5
2022-09-20T22:25:00.326Z,202.5
2022-09-20T22:30:05.364Z,202.5
2022-09-20T22:35:00.317Z,202.5
2022-09-20T22:40:00.678Z,202.5
2022-09-20T22:45:00.472Z,202.5
2022-09-20T22:50:00.398Z,189.3
2022-09-20T22:55:00.336Z,180.1
2022-09-20T23:00:00.447Z,201.5
2022-09-20T23:05:00.320Z,224.3
2022-09-20T23:10:00.376Z,258.4
2022-09-20T23:15:00.349Z,288.4
2022-09-20T23:20:00.347Z,270.1
2022-09-20T23:25:00.312Z,270.0
2022-09-20T23:30:00.377Z,258.4
2022-09-20T23:35:00.898Z,213.3
2022-09-20T23:40:00.691Z,202.6
2022-09-20T23:45:00.403Z,202.5
2022-09-20T23:50:00.388Z,202.5
2022-09-20T23:55:00.356Z,223.5
